Time;durP1;ratioP1;P1;durP2;ratioP2;P2;SDS_P1;SDS_P2;PMS_P1;PMS_P2;Temp;Humidity;BMP_temperature;BMP_pressure;BME280_temperature;BME280_humidity;BME280_pressure;Samples;Min_cycle;Max_cycle;Signal;HPM_P1;HPM_P2
2023/02/26 00:01:36;;;;;;;;;;;;;;;21.93;26.03;96858.84;5082988;28;727;-83
2023/02/26 00:04:02;;;;;;;;;;;;;;;21.69;26.01;96855.88;5081136;28;1384;-83
2023/02/26 00:06:28;;;;;;;;;;;;;;;21.71;26.14;96853.38;5081152;28;1174;-82
2023/02/26 00:08:53;;;;;;;;;;;;;;;21.89;26.12;96851.75;5082269;28;916;-82
2023/02/26 00:11:19;;;;;;;;;;;;;;;22.31;25.37;96846.94;5081002;28;774;-82
2023/02/26 00:13:46;;;;;;;;;;;;;;;22.03;25.84;96849.06;5082329;28;1906;-83
2023/02/26 00:16:25;;;;;;;;;;;;;;;21.49;26.44;96847.06;5082281;28;870;-83
2023/02/26 00:18:51;;;;;;;;;;;;;;;21.47;26.42;96849.59;5081223;28;909;-84
2023/02/26 00:21:17;;;;;;;;;;;;;;;21.87;26.25;96854.28;5082693;28;821;-83
2023/02/26 00:23:42;;;;;;;;;;;;;;;22.14;25.82;96856.31;5081277;28;985;-83
2023/02/26 00:26:08;;;;;;;;;;;;;;;22.51;25.15;96873.97;5082310;28;923;-83
2023/02/26 00:28:34;;;;;;;;;;;;;;;21.94;25.84;96876.63;5081207;28;808;-83
2023/02/26 00:30:59;;;;;;;;;;;;;;;21.41;26.82;96874.91;5081053;28;865;-83
2023/02/26 00:33:25;;;;;;;;;;;;;;;21.55;26.45;96879.16;5082206;28;1910;-83
2023/02/26 00:35:50;;;;;;;;;;;;;;;21.98;26.08;96871.56;5082662;28;770;-83
2023/02/26 00:38:16;;;;;;;;;;;;;;;22.16;25.91;96867.94;5081030;28;826;-83
2023/02/26 00:40:48;;;;;;;;;;;;;;;22.45;25.22;96864.53;5081566;28;1258;-83
2023/02/26 00:43:23;;;;;;;;;;;;;;;21.76;26.33;96861.22;5077790;28;841;-83
2023/02/26 00:46:07;;;;;;;;;;;;;;;21.64;26.30;96870.66;5077932;28;865;-83
2023/02/26 00:48:46;;;;;;;;;;;;;;;21.54;26.70;96877.56;5079269;28;850;-83
2023/02/26 00:51:20;;;;;;;;;;;;;;;21.97;26.23;96875.69;5077544;28;833;-83
2023/02/26 00:53:49;;;;;;;;;;;;;;;22.11;25.94;96869.34;5061409;28;1910;-83
2023/02/26 00:56:14;;;;;;;;;;;;;;;22.27;25.55;96871.81;5061084;28;1274;-82
2023/02/26 00:58:40;;;;;;;;;;;;;;;21.90;25.92;96870.31;5078038;28;1038;-83
2023/02/26 01:01:06;;;;;;;;;;;;;;;21.71;26.25;96863.88;5077871;28;1480;-83
2023/02/26 01:03:32;;;;;;;;;;;;;;;21.64;26.44;96865.00;5077587;28;1277;-82
2023/02/26 01:05:58;;;;;;;;;;;;;;;21.55;26.78;96865.00;5079016;28;873;-83
2023/02/26 01:08:26;;;;;;;;;;;;;;;21.83;26.61;96854.44;5077274;28;1318;-83
2023/02/26 01:10:52;;;;;;;;;;;;;;;22.07;26.13;96854.53;5078957;28;848;-83
2023/02/26 01:13:17;;;;;;;;;;;;;;;22.09;25.86;96855.66;5078262;28;1988;-82
2023/02/26 01:15:45;;;;;;;;;;;;;;;21.61;26.70;96857.47;5055698;28;938;-83
2023/02/26 01:18:12;;;;;;;;;;;;;;;21.52;26.84;96846.91;5055850;28;960;-83
2023/02/26 01:20:48;;;;;;;;;;;;;;;21.61;26.76;96837.66;5022772;28;1158;-83
2023/02/26 01:23:15;;;;;;;;;;;;;;;22.06;26.29;96833.16;5022633;28;1502;-83
2023/02/26 01:25:40;;;;;;;;;;;;;;;22.24;25.95;96835.19;5039639;28;946;-83
2023/02/26 01:28:06;;;;;;;;;;;;;;;21.84;26.49;96845.47;5055542;28;1035;-81
2023/02/26 01:30:32;;;;;;;;;;;;;;;21.79;26.25;96842.50;5039224;28;897;-83
2023/02/26 01:33:03;;;;;;;;;;;;;;;21.62;26.48;96836.38;5055539;28;1041;-83
2023/02/26 01:35:41;;;;;;;;;;;;;;;22.15;26.13;96836.00;5018698;28;1971;-82
2023/02/26 01:38:19;;;;;;;;;;;;;;;22.26;25.69;96836.25;5019357;28;1217;-83
2023/02/26 01:41:03;;;;;;;;;;;;;;;22.15;26.24;96832.38;5019134;28;1242;-83
2023/02/26 01:43:31;;;;;;;;;;;;;;;21.86;26.12;96836.50;5035557;28;911;-83
2023/02/26 01:46:01;;;;;;;;;;;;;;;21.64;26.63;96842.34;5023178;28;931;-83
2023/02/26 01:48:37;;;;;;;;;;;;;;;21.57;27.19;96848.34;5035315;28;923;-83
2023/02/26 01:51:03;;;;;;;;;;;;;;;22.19;25.94;96853.59;5018852;28;850;-83
2023/02/26 01:53:28;;;;;;;;;;;;;;;22.42;25.62;96857.00;5018589;28;1967;-83
2023/02/26 01:55:56;;;;;;;;;;;;;;;22.29;26.05;96854.38;5035257;28;992;-83
2023/02/26 01:58:22;;;;;;;;;;;;;;;21.98;26.03;96861.03;5018938;28;1576;-82
2023/02/26 02:00:48;;;;;;;;;;;;;;;21.94;26.26;96860.41;5002735;28;1231;-83
2023/02/26 02:03:13;;;;;;;;;;;;;;;21.62;26.69;96864.69;5002257;28;1011;-83
2023/02/26 02:05:46;;;;;;;;;;;;;;;21.54;27.05;96861.38;5006450;28;1217;-83
2023/02/26 02:08:12;;;;;;;;;;;;;;;22.08;26.42;96873.13;5038252;28;1130;-83
2023/02/26 02:10:39;;;;;;;;;;;;;;;22.42;25.88;96876.81;5038245;28;937;-83
2023/02/26 02:13:10;;;;;;;;;;;;;;;21.93;26.47;96875.81;5021961;28;1188;-82
2023/02/26 02:15:35;;;;;;;;;;;;;;;21.83;26.37;96872.22;5022285;28;1129;-82
2023/02/26 02:18:01;;;;;;;;;;;;;;;21.64;26.60;96890.47;5054839;28;879;-83
2023/02/26 02:20:47;;;;;;;;;;;;;;;22.09;26.48;96883.19;5075267;28;888;-82
2023/02/26 02:23:19;;;;;;;;;;;;;;;22.07;26.50;96880.03;5077482;28;869;-83
2023/02/26 02:25:44;;;;;;;;;;;;;;;22.25;25.79;96902.69;5059434;28;949;-83
2023/02/26 02:28:39;;;;;;;;;;;;;;;21.89;26.52;96885.75;5077152;28;917;-83
2023/02/26 02:31:15;;;;;;;;;;;;;;;21.66;27.03;96893.63;5018028;28;1066;-83
2023/02/26 02:33:47;;;;;;;;;;;;;;;21.61;27.15;96899.94;5001889;28;1906;-83
2023/02/26 02:36:19;;;;;;;;;;;;;;;22.03;26.62;96902.09;4978986;28;1304;-83
2023/02/26 02:38:46;;;;;;;;;;;;;;;22.17;26.48;96904.28;5011474;28;952;-83
2023/02/26 02:41:19;;;;;;;;;;;;;;;21.78;26.38;96903.22;4994688;28;918;-83
2023/02/26 02:43:46;;;;;;;;;;;;;;;21.90;26.75;96915.63;4995215;28;1138;-82
2023/02/26 02:46:18;;;;;;;;;;;;;;;21.67;27.01;96902.91;5011153;28;890;-83
2023/02/26 02:48:48;;;;;;;;;;;;;;;22.01;26.84;96915.94;5031352;28;1294;-83
2023/02/26 02:51:16;;;;;;;;;;;;;;;22.07;26.65;96908.34;4998374;28;1214;-82
2023/02/26 02:53:43;;;;;;;;;;;;;;;22.48;25.67;96920.25;4998238;28;1993;-82
2023/02/26 02:56:10;;;;;;;;;;;;;;;21.93;26.37;96926.03;4982047;28;1245;-83
2023/02/26 02:58:36;;;;;;;;;;;;;;;21.69;26.71;96912.50;4997816;28;1081;-82
2023/02/26 03:01:03;;;;;;;;;;;;;;;21.55;26.93;96930.91;5014865;28;1056;-83
2023/02/26 03:03:47;;;;;;;;;;;;;;;21.78;27.10;96931.53;5031064;28;1143;-83
2023/02/26 03:06:13;;;;;;;;;;;;;;;22.20;26.31;96945.84;5013471;28;1057;-82
2023/02/26 03:08:43;;;;;;;;;;;;;;;22.19;26.29;96947.09;5034443;28;961;-83
2023/02/26 03:11:08;;;;;;;;;;;;;;;21.62;26.95;96955.28;5034065;28;838;-83
2023/02/26 03:13:34;;;;;;;;;;;;;;;21.65;27.24;96954.31;5017338;28;1972;-83
2023/02/26 03:16:10;;;;;;;;;;;;;;;21.64;26.83;96955.59;5017604;28;1179;-83
2023/02/26 03:18:50;;;;;;;;;;;;;;;22.14;26.44;96961.91;5034745;28;1175;-83
2023/02/26 03:21:29;;;;;;;;;;;;;;;22.13;26.38;96953.91;5021016;28;1199;-83
2023/02/26 03:24:04;;;;;;;;;;;;;;;21.96;26.56;96959.03;5020849;28;1194;-84
2023/02/26 03:26:41;;;;;;;;;;;;;;;21.73;26.86;96969.75;5004894;28;1208;-82
2023/02/26 03:29:27;;;;;;;;;;;;;;;21.82;26.90;96966.94;5020787;28;1773;-82
2023/02/26 03:31:53;;;;;;;;;;;;;;;21.81;26.82;96968.19;5020777;28;1195;-83
2023/02/26 03:34:26;;;;;;;;;;;;;;;22.07;26.20;96976.34;5037468;28;1959;-83
2023/02/26 03:36:56;;;;;;;;;;;;;;;22.22;26.17;96982.19;5071590;28;932;-83
2023/02/26 03:39:27;;;;;;;;;;;;;;;21.81;26.65;96970.22;5061010;28;1296;-82
2023/02/26 03:41:58;;;;;;;;;;;;;;;21.72;26.67;96979.50;5037518;28;1165;-83
2023/02/26 03:44:32;;;;;;;;;;;;;;;21.60;27.11;96983.25;5021012;28;1286;-83
2023/02/26 03:46:59;;;;;;;;;;;;;;;21.92;26.78;96981.09;5037375;28;1314;-83
2023/02/26 03:49:26;;;;;;;;;;;;;;;22.06;26.28;96980.44;5020778;28;1368;-83
2023/02/26 03:51:52;;;;;;;;;;;;;;;22.39;25.87;96989.13;5037150;28;1138;-83
2023/02/26 03:55:07;;;;;;;;;;;;;;;21.74;26.78;96988.31;5053539;28;1984;-83
2023/02/26 03:58:05;;;;;;;;;;;;;;;21.66;26.60;96991.91;4994325;28;895;-83
2023/02/26 04:00:41;;;;;;;;;;;;;;;22.10;26.60;97000.91;4979564;28;1035;-83
2023/02/26 04:03:11;;;;;;;;;;;;;;;22.03;26.37;97007.69;4978250;28;1436;-82
2023/02/26 04:05:41;;;;;;;;;;;;;;;22.36;25.80;97009.91;4978270;28;1139;-83
2023/02/26 04:08:07;;;;;;;;;;;;;;;21.98;26.50;97007.53;4977720;28;1113;-83
2023/02/26 04:10:37;;;;;;;;;;;;;;;21.91;26.55;97019.16;4978210;28;1271;-83
2023/02/26 04:13:02;;;;;;;;;;;;;;;21.67;26.74;97010.50;4977974;28;1107;-83
2023/02/26 04:15:28;;;;;;;;;;;;;;;21.87;26.80;97015.72;4977490;28;1981;-83
2023/02/26 04:17:53;;;;;;;;;;;;;;;21.99;26.65;97014.75;4997237;28;1035;-83
2023/02/26 04:20:19;;;;;;;;;;;;;;;22.15;26.18;97011.63;4999265;28;1142;-83
2023/02/26 04:22:45;;;;;;;;;;;;;;;21.74;26.65;97033.59;4985018;28;1233;-83
2023/02/26 04:25:10;;;;;;;;;;;;;;;21.73;26.90;97025.59;5001090;28;1273;-82
2023/02/26 04:27:36;;;;;;;;;;;;;;;21.78;26.39;97034.25;5001041;28;1429;-83
2023/02/26 04:30:02;;;;;;;;;;;;;;;22.00;26.57;97016.34;5000619;28;1619;-83
2023/02/26 04:32:29;;;;;;;;;;;;;;;22.01;26.34;97030.00;4984628;28;1516;-82
2023/02/26 04:34:54;;;;;;;;;;;;;;;21.93;26.64;97034.44;5090576;28;1962;-83
2023/02/26 04:37:20;;;;;;;;;;;;;;;21.95;26.62;97028.28;5075197;28;1588;-83
2023/02/26 04:39:46;;;;;;;;;;;;;;;21.53;26.94;97029.63;5076697;28;1719;-83
2023/02/26 04:42:12;;;;;;;;;;;;;;;21.74;26.83;97035.66;5041851;28;1165;-83
2023/02/26 04:44:37;;;;;;;;;;;;;;;21.91;26.53;97030.47;5079852;28;1656;-83
2023/02/26 04:47:03;;;;;;;;;;;;;;;21.97;26.42;97028.63;5091294;28;1161;-83
2023/02/26 04:49:30;;;;;;;;;;;;;;;21.91;26.45;97038.97;5058199;28;1479;-83
2023/02/26 04:51:55;;;;;;;;;;;;;;;21.68;26.87;97046.03;5058818;28;791;-83
2023/02/26 04:54:21;;;;;;;;;;;;;;;21.45;27.31;97033.22;5057852;28;1910;-82
2023/02/26 04:56:47;;;;;;;;;;;;;;;21.79;26.90;97038.66;5074263;28;1135;-83
2023/02/26 04:59:12;;;;;;;;;;;;;;;22.02;26.49;97033.63;5059142;28;770;-83
2023/02/26 05:01:39;;;;;;;;;;;;;;;21.89;26.54;97050.00;5068024;28;1319;-83
2023/02/26 05:04:06;;;;;;;;;;;;;;;21.97;26.48;97051.28;5094102;28;1134;-82
2023/02/26 05:06:32;;;;;;;;;;;;;;;21.75;26.76;97051.38;5077081;28;1456;-83
2023/02/26 05:08:57;;;;;;;;;;;;;;;21.79;26.51;97052.03;5078529;28;860;-83
2023/02/26 05:11:23;;;;;;;;;;;;;;;21.50;27.12;97069.41;5090599;28;1327;-83
2023/02/26 05:13:48;;;;;;;;;;;;;;;21.97;26.77;97062.59;5061736;28;1904;-83
2023/02/26 05:16:14;;;;;;;;;;;;;;;22.29;26.31;97067.69;5096330;28;1333;-83
2023/02/26 05:18:40;;;;;;;;;;;;;;;22.16;26.11;97086.88;5059732;28;1675;-83
2023/02/26 05:21:05;;;;;;;;;;;;;;;21.82;26.94;97080.19;5040367;28;1147;-82
2023/02/26 05:23:31;;;;;;;;;;;;;;;21.65;26.93;97081.72;5058836;28;1618;-83
2023/02/26 05:25:57;;;;;;;;;;;;;;;21.62;27.23;97085.50;5066614;28;1615;-82
2023/02/26 05:28:23;;;;;;;;;;;;;;;22.01;26.54;97074.56;5077070;28;837;-83
2023/02/26 05:30:48;;;;;;;;;;;;;;;22.23;26.42;97086.59;5057234;28;1577;-83
2023/02/26 05:33:14;;;;;;;;;;;;;;;21.92;26.75;97088.72;5073422;28;1915;-83
2023/02/26 05:35:40;;;;;;;;;;;;;;;21.79;27.01;97092.44;5090445;28;825;-83
2023/02/26 05:38:05;;;;;;;;;;;;;;;21.87;26.59;97089.34;5057598;28;994;-83
2023/02/26 05:40:30;;;;;;;;;;;;;;;21.90;26.96;97091.22;5056839;28;937;-83
2023/02/26 05:42:56;;;;;;;;;;;;;;;22.04;26.56;97079.28;5069800;28;1577;-83
2023/02/26 05:45:21;;;;;;;;;;;;;;;22.11;26.58;97107.34;5075276;28;800;-83
2023/02/26 05:47:47;;;;;;;;;;;;;;;21.78;26.75;97104.25;5058470;28;1748;-82
2023/02/26 05:50:12;;;;;;;;;;;;;;;21.56;26.99;97095.84;5041734;28;1021;-83
2023/02/26 05:52:38;;;;;;;;;;;;;;;21.43;27.09;97098.00;5074938;28;930;-83
2023/02/26 05:55:03;;;;;;;;;;;;;;;21.45;27.09;97109.63;5055453;28;1910;-83
2023/02/26 05:57:29;;;;;;;;;;;;;;;21.59;27.42;97106.22;5055575;28;888;-83
2023/02/26 05:59:54;;;;;;;;;;;;;;;21.97;26.55;97102.25;5055583;28;899;-83
2023/02/26 06:02:20;;;;;;;;;;;;;;;22.03;26.35;97106.03;5038824;28;1220;-84
2023/02/26 06:04:45;;;;;;;;;;;;;;;21.73;26.77;97102.03;5054563;28;1339;-82
2023/02/26 06:07:10;;;;;;;;;;;;;;;21.82;26.75;97113.41;5054837;28;1232;-83
2023/02/26 06:09:37;;;;;;;;;;;;;;;21.86;26.89;97108.34;5054857;28;931;-83
2023/02/26 06:12:02;;;;;;;;;;;;;;;21.84;26.82;97111.66;5055127;28;915;-83
2023/02/26 06:14:27;;;;;;;;;;;;;;;22.04;26.54;97114.06;5059925;28;1936;-83
2023/02/26 06:16:53;;;;;;;;;;;;;;;21.93;26.71;97113.72;5107530;28;1541;-83
2023/02/26 06:19:20;;;;;;;;;;;;;;;21.71;26.73;97119.50;5076981;28;1541;-83
2023/02/26 06:21:46;;;;;;;;;;;;;;;21.73;26.60;97124.69;5076335;28;1145;-83
2023/02/26 06:24:11;;;;;;;;;;;;;;;22.08;26.49;97128.09;5075680;28;923;-82
2023/02/26 06:26:37;;;;;;;;;;;;;;;22.12;26.32;97137.22;5076256;28;985;-83
2023/02/26 06:29:02;;;;;;;;;;;;;;;22.21;26.50;97125.91;5076927;28;775;-82
2023/02/26 06:31:27;;;;;;;;;;;;;;;21.94;26.24;97129.47;5076810;28;1320;-83
2023/02/26 06:33:53;;;;;;;;;;;;;;;21.61;27.05;97132.06;5109379;28;1911;-82
2023/02/26 06:36:18;;;;;;;;;;;;;;;21.76;26.70;97144.38;5109360;28;841;-83
2023/02/26 06:38:44;;;;;;;;;;;;;;;21.73;27.04;97145.28;5076622;28;1132;-83
2023/02/26 06:41:10;;;;;;;;;;;;;;;21.84;26.77;97156.97;5076218;28;921;-82
2023/02/26 06:43:35;;;;;;;;;;;;;;;21.95;26.56;97150.84;5109162;28;905;-83
2023/02/26 06:46:00;;;;;;;;;;;;;;;22.19;26.25;97159.63;5059657;28;1399;-82
2023/02/26 06:48:26;;;;;;;;;;;;;;;21.69;27.08;97161.63;5088160;28;903;-83
2023/02/26 06:50:52;;;;;;;;;;;;;;;21.61;27.08;97149.03;5056745;28;835;-83
2023/02/26 06:53:17;;;;;;;;;;;;;;;21.56;27.21;97146.81;5088662;28;1976;-83
2023/02/26 06:55:43;;;;;;;;;;;;;;;22.11;26.52;97147.00;5055254;28;875;-83
2023/02/26 06:58:09;;;;;;;;;;;;;;;22.27;26.23;97141.03;5056440;28;871;-83
2023/02/26 07:00:35;;;;;;;;;;;;;;;22.27;26.20;97143.88;5056488;28;1530;-83
2023/02/26 07:03:01;;;;;;;;;;;;;;;21.88;26.47;97144.72;5056341;28;906;-82
2023/02/26 07:05:27;;;;;;;;;;;;;;;21.71;26.64;97155.50;5088648;28;924;-83
2023/02/26 07:07:52;;;;;;;;;;;;;;;21.61;27.21;97149.03;5056632;28;1173;-83
2023/02/26 07:10:20;;;;;;;;;;;;;;;22.00;26.71;97146.63;5056213;28;813;-83
2023/02/26 07:12:45;;;;;;;;;;;;;;;21.84;27.01;97156.97;5088794;28;924;-83
2023/02/26 07:15:11;;;;;;;;;;;;;;;22.12;26.36;97157.06;5107173;28;1898;-83
2023/02/26 07:17:36;;;;;;;;;;;;;;;21.83;26.76;97161.06;5097470;28;1261;-83
2023/02/26 07:20:05;;;;;;;;;;;;;;;21.66;26.92;97156.91;5114351;28;961;-83
2023/02/26 07:22:30;;;;;;;;;;;;;;;21.81;26.98;97155.09;5114401;28;1048;-82
2023/02/26 07:24:56;;;;;;;;;;;;;;;21.94;27.13;97151.34;5114591;28;928;-82
2023/02/26 07:27:21;;;;;;;;;;;;;;;22.01;26.75;97148.19;5114316;28;1022;-83
2023/02/26 07:29:47;;;;;;;;;;;;;;;21.93;26.60;97149.78;5113699;28;1591;-83
2023/02/26 07:32:12;;;;;;;;;;;;;;;21.80;27.14;97156.31;5097464;28;960;-83
2023/02/26 07:34:37;;;;;;;;;;;;;;;21.66;27.17;97147.59;5114304;28;1925;-82
2023/02/26 07:37:03;;;;;;;;;;;;;;;22.05;26.72;97143.19;5080185;28;957;-83
2023/02/26 07:39:28;;;;;;;;;;;;;;;21.93;26.83;97146.94;5080981;28;1126;-83
2023/02/26 07:41:54;;;;;;;;;;;;;;;21.96;27.16;97143.16;5114244;28;874;-83
2023/02/26 07:44:20;;;;;;;;;;;;;;;21.78;27.06;97136.19;5102392;28;1503;-83
2023/02/26 07:46:46;;;;;;;;;;;;;;;21.67;27.08;97135.84;5042584;28;883;-83
2023/02/26 07:49:11;;;;;;;;;;;;;;;21.67;27.23;97133.00;5056147;28;901;-82
2023/02/26 07:51:37;;;;;;;;;;;;;;;21.69;27.53;97150.31;5056314;28;824;-83
2023/02/26 07:54:02;;;;;;;;;;;;;;;22.24;26.39;97144.81;5091787;28;1913;-83
2023/02/26 07:56:28;;;;;;;;;;;;;;;22.14;26.73;97148.91;5058713;28;882;-84
2023/02/26 07:58:53;;;;;;;;;;;;;;;21.96;26.89;97140.31;5100181;28;1300;-83
2023/02/26 08:01:19;;;;;;;;;;;;;;;21.81;27.00;97140.94;5079032;28;1112;-83
2023/02/26 08:03:44;;;;;;;;;;;;;;;21.67;27.48;97144.34;5079902;28;916;-83
2023/02/26 08:06:10;;;;;;;;;;;;;;;21.80;27.30;97142.16;5079844;28;1004;-83
2023/02/26 08:08:35;;;;;;;;;;;;;;;22.02;27.13;97136.41;5111590;28;903;-83
2023/02/26 08:11:00;;;;;;;;;;;;;;;21.99;26.95;97133.72;5079455;28;839;-83
2023/02/26 08:13:26;;;;;;;;;;;;;;;22.16;26.64;97143.53;5110402;28;1981;-82
2023/02/26 08:15:52;;;;;;;;;;;;;;;21.93;26.99;97141.28;5079175;28;929;-83
2023/02/26 08:18:17;;;;;;;;;;;;;;;21.76;27.25;97143.56;5079369;28;878;-82
2023/02/26 08:20:43;;;;;;;;;;;;;;;21.31;28.06;97142.91;5079474;28;878;-83
2023/02/26 08:23:08;;;;;;;;;;;;;;;21.42;27.88;97136.03;5111207;28;900;-83
2023/02/26 08:25:34;;;;;;;;;;;;;;;22.01;27.01;97142.53;5079216;28;987;-82
2023/02/26 08:28:00;;;;;;;;;;;;;;;22.16;27.03;97128.59;5077461;28;1335;-82
2023/02/26 08:30:25;;;;;;;;;;;;;;;22.03;26.89;97145.69;5079406;28;1035;-83
2023/02/26 08:32:50;;;;;;;;;;;;;;;21.77;27.53;97145.94;5079640;28;853;-83
2023/02/26 08:35:16;;;;;;;;;;;;;;;21.65;27.65;97149.66;5079080;28;1914;-83
2023/02/26 08:37:41;;;;;;;;;;;;;;;21.71;27.35;97142.16;5079284;28;779;-83
2023/02/26 08:40:07;;;;;;;;;;;;;;;22.04;27.11;97141.59;5079276;28;913;-83
2023/02/26 08:42:33;;;;;;;;;;;;;;;22.17;27.00;97144.31;5074306;28;1427;-83
2023/02/26 08:44:58;;;;;;;;;;;;;;;22.24;26.77;97144.81;5091639;28;816;-83
2023/02/26 08:47:24;;;;;;;;;;;;;;;21.82;27.23;97138.88;5059140;28;878;-83
2023/02/26 08:49:49;;;;;;;;;;;;;;;21.71;27.45;97141.34;5058638;28;949;-82
2023/02/26 08:52:15;;;;;;;;;;;;;;;21.71;27.53;97130.00;5058618;28;1081;-83
2023/02/26 08:54:40;;;;;;;;;;;;;;;21.97;27.31;97141.91;5059068;28;1918;-83
2023/02/26 08:57:06;;;;;;;;;;;;;;;21.99;27.28;97128.06;5061035;28;1362;-83
2023/02/26 08:59:31;;;;;;;;;;;;;;;22.36;26.53;97135.38;5059080;28;1427;-82
2023/02/26 09:01:57;;;;;;;;;;;;;;;22.16;27.22;97131.44;5074471;28;1382;-83
2023/02/26 09:04:22;;;;;;;;;;;;;;;21.70;27.75;97137.72;5058809;28;922;-83
2023/02/26 09:06:47;;;;;;;;;;;;;;;21.91;27.28;97138.09;5078240;28;1261;-83
2023/02/26 09:09:13;;;;;;;;;;;;;;;21.78;27.37;97141.06;5060870;28;1374;-83
2023/02/26 09:11:39;;;;;;;;;;;;;;;21.68;27.56;97136.63;5058606;28;1080;-83
2023/02/26 09:14:05;;;;;;;;;;;;;;;21.96;27.31;97141.09;5057037;28;2277;-83
2023/02/26 09:16:30;;;;;;;;;;;;;;;22.09;27.16;97149.50;5058267;28;892;-83
2023/02/26 09:18:56;;;;;;;;;;;;;;;21.76;27.46;97155.69;5057529;28;1320;-83
2023/02/26 09:21:22;;;;;;;;;;;;;;;21.77;27.71;97145.94;5090523;28;1165;-82
2023/02/26 09:23:47;;;;;;;;;;;;;;;21.68;27.73;97154.41;5058232;28;1308;-83
2023/02/26 09:26:13;;;;;;;;;;;;;;;21.79;27.90;97163.25;5058821;28;751;-82
2023/02/26 09:28:39;;;;;;;;;;;;;;;22.34;26.96;97166.25;5090949;28;843;-83
2023/02/26 09:31:05;;;;;;;;;;;;;;;22.26;26.89;97173.47;5090589;28;850;-83
2023/02/26 09:33:31;;;;;;;;;;;;;;;21.74;27.59;97163.84;5058076;28;1914;-83
2023/02/26 09:35:57;;;;;;;;;;;;;;;21.83;27.57;97166.72;5056868;28;847;-83
2023/02/26 09:38:22;;;;;;;;;;;;;;;21.64;28.04;97172.78;5057591;28;1350;-82
2023/02/26 09:40:50;;;;;;;;;;;;;;;22.10;26.99;97173.72;5058078;28;869;-83
2023/02/26 09:43:48;;;;;;;;;;;;;;;22.25;26.88;97180.41;5089837;28;770;-83
2023/02/26 09:46:19;;;;;;;;;;;;;;;21.90;27.25;97164.84;5075837;28;1033;-83
2023/02/26 09:48:45;;;;;;;;;;;;;;;21.85;27.37;97154.91;5075472;28;939;-83
2023/02/26 09:51:11;;;;;;;;;;;;;;;21.49;27.93;97169.72;5075530;28;865;-83
2023/02/26 09:53:39;;;;;;;;;;;;;;;21.71;27.86;97180.97;5092354;28;1975;-83
2023/02/26 09:56:06;;;;;;;;;;;;;;;21.88;27.66;97178.69;5035462;28;889;-83
2023/02/26 09:58:31;;;;;;;;;;;;;;;22.06;27.37;97173.06;5019530;28;817;-83
2023/02/26 10:01:17;;;;;;;;;;;;;;;21.90;27.29;97181.84;5018920;28;888;-83
2023/02/26 10:04:11;;;;;;;;;;;;;;;21.67;27.66;97152.03;4994538;28;1429;-83
2023/02/26 10:06:37;;;;;;;;;;;;;;;21.68;27.81;97147.94;4956632;29;1122;-81
2023/02/26 10:09:14;;;;;;;;;;;;;;;22.15;27.06;97156.13;4956842;29;958;-83
2023/02/26 10:12:05;;;;;;;;;;;;;;;22.42;26.83;97148.94;4957474;29;979;-82
2023/02/26 10:14:49;;;;;;;;;;;;;;;21.83;27.41;97154.63;4880430;29;1976;-82
2023/02/26 10:17:17;;;;;;;;;;;;;;;21.79;27.51;97146.25;4893330;29;955;-82
2023/02/26 10:19:44;;;;;;;;;;;;;;;21.68;27.73;97147.94;4868877;29;1308;-83
2023/02/26 10:22:15;;;;;;;;;;;;;;;21.65;27.74;97151.69;4856709;29;930;-83
2023/02/26 10:24:42;;;;;;;;;;;;;;;22.00;27.24;97155.13;4844061;29;957;-83
2023/02/26 10:27:15;;;;;;;;;;;;;;;22.25;27.04;97162.63;4843666;29;909;-83
2023/02/26 10:29:59;;;;;;;;;;;;;;;22.30;26.52;97148.59;4859097;29;971;-83
2023/02/26 10:32:29;;;;;;;;;;;;;;;21.63;27.82;97149.34;4859375;29;906;-83
2023/02/26 10:34:59;;;;;;;;;;;;;;;21.63;27.77;97145.72;4877013;29;1907;-83
2023/02/26 10:37:46;;;;;;;;;;;;;;;21.57;27.70;97132.19;4877635;29;889;-82
2023/02/26 10:40:21;;;;;;;;;;;;;;;21.98;27.26;97132.94;4886629;29;1015;-82
2023/02/26 10:42:59;;;;;;;;;;;;;;;22.31;26.64;97138.84;4921900;29;1107;-83
2023/02/26 10:45:43;;;;;;;;;;;;;;;22.00;26.96;97123.97;4989990;28;1066;-82
2023/02/26 10:48:27;;;;;;;;;;;;;;;21.89;27.41;97121.59;5014193;28;1442;-82
2023/02/26 10:50:54;;;;;;;;;;;;;;;21.67;27.70;97113.19;5027036;28;1019;-83
2023/02/26 10:53:20;;;;;;;;;;;;;;;22.23;26.84;97126.25;5037732;28;898;-83
2023/02/26 10:55:54;;;;;;;;;;;;;;;22.32;26.54;97120.56;5037555;28;1910;-82
2023/02/26 10:58:21;;;;;;;;;;;;;;;21.92;27.01;97106.50;5037788;28;960;-82
2023/02/26 11:00:48;;;;;;;;;;;;;;;21.89;27.18;97115.13;5037285;28;950;-83
2023/02/26 11:03:15;;;;;;;;;;;;;;;21.84;27.48;97120.16;5054265;28;1351;-83
2023/02/26 11:05:41;;;;;;;;;;;;;;;22.15;26.89;97112.84;5053649;28;928;-83
2023/02/26 11:08:11;;;;;;;;;;;;;;;22.44;26.34;97112.41;5053920;28;1211;-82
2023/02/26 11:10:55;;;;;;;;;;;;;;;22.04;26.73;97113.28;5053587;28;1245;-83
2023/02/26 11:13:21;;;;;;;;;;;;;;;21.83;27.43;97115.75;5053750;28;881;-83
2023/02/26 11:15:48;;;;;;;;;;;;;;;21.75;27.54;97119.34;5053851;28;1914;-82
2023/02/26 11:18:16;;;;;;;;;;;;;;;22.03;26.95;97112.50;5062225;28;1372;-83
2023/02/26 11:20:41;;;;;;;;;;;;;;;22.30;26.53;97108.16;5088341;28;1548;-83
2023/02/26 11:23:10;;;;;;;;;;;;;;;22.01;27.09;97097.22;5088604;28;1369;-83
2023/02/26 11:25:36;;;;;;;;;;;;;;;21.92;27.04;97122.72;5082995;28;1489;-82
2023/02/26 11:28:05;;;;;;;;;;;;;;;21.66;27.78;97122.13;5055506;28;817;-83
2023/02/26 11:30:32;;;;;;;;;;;;;;;21.78;27.47;97130.53;5056371;28;844;-83
2023/02/26 11:32:58;;;;;;;;;;;;;;;22.38;26.39;97136.94;5052089;28;732;-83
2023/02/26 11:35:25;;;;;;;;;;;;;;;22.28;26.51;97150.34;5045569;28;1918;-83
2023/02/26 11:37:58;;;;;;;;;;;;;;;21.78;27.24;97153.19;5076096;28;874;-83
2023/02/26 11:40:27;;;;;;;;;;;;;;;21.62;27.51;97149.81;5108757;28;856;-83
2023/02/26 11:42:54;;;;;;;;;;;;;;;21.61;27.58;97143.38;5076518;28;1116;-83
2023/02/26 11:45:19;;;;;;;;;;;;;;;21.60;27.56;97141.78;5108745;28;739;-83
2023/02/26 11:47:45;;;;;;;;;;;;;;;22.04;27.07;97152.94;5108928;28;941;-83
2023/02/26 11:50:15;;;;;;;;;;;;;;;22.18;26.72;97141.03;5106647;28;1463;-82
2023/02/26 11:52:41;;;;;;;;;;;;;;;22.35;26.51;97139.47;5087889;28;868;-82
2023/02/26 11:55:17;;;;;;;;;;;;;;;21.94;27.14;97131.50;5087759;28;1915;-83
2023/02/26 11:57:43;;;;;;;;;;;;;;;21.88;27.05;97139.06;5055693;28;822;-82
2023/02/26 12:00:19;;;;;;;;;;;;;;;21.66;27.54;97127.78;5071337;28;1232;-83
2023/02/26 12:02:45;;;;;;;;;;;;;;;21.89;27.28;97117.97;5093731;28;884;-83
2023/02/26 12:05:11;;;;;;;;;;;;;;;22.19;27.02;97128.44;5078644;28;1334;-83
2023/02/26 12:07:37;;;;;;;;;;;;;;;22.36;26.42;97126.88;5097196;28;1072;-83
2023/02/26 12:10:08;;;;;;;;;;;;;;;21.82;27.21;97125.50;5113841;28;757;-83
2023/02/26 12:12:49;;;;;;;;;;;;;;;21.88;27.03;97119.22;5073519;28;882;-83
2023/02/26 12:15:30;;;;;;;;;;;;;;;21.53;27.54;97110.94;5072871;28;1966;-83
2023/02/26 12:17:55;;;;;;;;;;;;;;;21.95;27.04;97124.59;5056506;28;912;-83
2023/02/26 12:20:30;;;;;;;;;;;;;;;22.13;26.81;97121.84;5052710;28;1527;-83
2023/02/26 12:22:55;;;;;;;;;;;;;;;21.95;27.20;97122.53;5053236;28;878;-83
2023/02/26 12:25:22;;;;;;;;;;;;;;;21.77;27.33;97123.28;5036750;28;877;-83
2023/02/26 12:27:47;;;;;;;;;;;;;;;21.63;27.41;97143.69;5020255;28;912;-83
2023/02/26 12:30:19;;;;;;;;;;;;;;;21.50;27.63;97138.13;5053195;28;906;-83
2023/02/26 12:32:59;;;;;;;;;;;;;;;22.15;26.78;97141.97;5034781;28;938;-83
2023/02/26 12:35:25;;;;;;;;;;;;;;;22.36;26.46;97152.38;5041634;28;1901;-82
2023/02/26 12:37:54;;;;;;;;;;;;;;;21.92;26.85;97145.38;5055729;28;968;-83
2023/02/26 12:40:42;;;;;;;;;;;;;;;21.68;27.53;97153.63;5039813;28;984;-83
2023/02/26 12:43:14;;;;;;;;;;;;;;;21.50;27.67;97143.00;5056814;28;984;-83
2023/02/26 12:46:00;;;;;;;;;;;;;;;21.90;27.13;97145.03;5056636;28;873;-83
2023/02/26 12:48:35;;;;;;;;;;;;;;;22.19;26.99;97151.13;5036490;28;925;-83
2023/02/26 12:51:07;;;;;;;;;;;;;;;21.78;27.21;97147.50;5072479;28;1423;-82
2023/02/26 12:53:48;;;;;;;;;;;;;;;21.87;27.06;97131.81;5059902;28;1909;-83
2023/02/26 12:56:31;;;;;;;;;;;;;;;21.74;27.17;97146.88;5076303;28;967;-83
2023/02/26 12:59:09;;;;;;;;;;;;;;;21.99;27.03;97162.06;5076324;28;953;-83
2023/02/26 13:01:41;;;;;;;;;;;;;;;22.05;27.09;97154.50;5059929;28;902;-82
2023/02/26 13:04:27;;;;;;;;;;;;;;;21.78;27.27;97152.41;5057412;28;1487;-83
2023/02/26 13:07:11;;;;;;;;;;;;;;;21.60;27.46;97164.41;5056138;28;1349;-83
2023/02/26 13:09:45;;;;;;;;;;;;;;;21.76;27.24;97161.38;5056642;28;873;-83
2023/02/26 13:12:16;;;;;;;;;;;;;;;22.06;26.81;97150.41;5056082;28;1000;-83